sensor_id;sensor_type;location;lat;lon;timestamp;temperature;humidity
2657;DHT22;1338;48.176;11.792;2024-03-06T00:01:13;4.10;1.00
2657;DHT22;1338;48.176;11.792;2024-03-06T00:03:42;4.10;1.00
2657;DHT22;1338;48.176;11.792;2024-03-06T00:06:10;4.10;1.00
2657;DHT22;1338;48.176;11.792;2024-03-06T00:08:39;4.00;1.00
2657;DHT22;1338;48.176;11.792;2024-03-06T00:11:08;4.10;1.00
2657;DHT22;1338;48.176;11.792;2024-03-06T00:13:36;4.10;1.00
2657;DHT22;1338;48.176;11.792;2024-03-06T00:16:05;4.10;1.00
2657;DHT22;1338;48.176;11.792;2024-03-06T00:18:36;4.10;1.00
2657;DHT22;1338;48.176;11.792;2024-03-06T00:21:04;4.10;99.90
2657;DHT22;1338;48.176;11.792;2024-03-06T00:23:33;4.20;99.90
2657;DHT22;1338;48.176;11.792;2024-03-06T00:26:03;5.30;2.90
2657;DHT22;1338;48.176;11.792;2024-03-06T00:28:31;4.30;1.00
2657;DHT22;1338;48.176;11.792;2024-03-06T00:31:00;4.30;1.00
2657;DHT22;1338;48.176;11.792;2024-03-06T00:33:29;4.30;1.00
2657;DHT22;1338;48.176;11.792;2024-03-06T00:35:59;4.30;1.00
2657;DHT22;1338;48.176;11.792;2024-03-06T00:38:28;4.20;1.00
2657;DHT22;1338;48.176;11.792;2024-03-06T00:40:59;4.30;1.00
2657;DHT22;1338;48.176;11.792;2024-03-06T00:43:28;4.50;1.00
2657;DHT22;1338;48.176;11.792;2024-03-06T00:45:57;4.80;1.00
2657;DHT22;1338;48.176;11.792;2024-03-06T00:48:26;4.90;1.00
2657;DHT22;1338;48.176;11.792;2024-03-06T00:50:55;4.70;99.90
2657;DHT22;1338;48.176;11.792;2024-03-06T00:53:25;5.10;99.90
2657;DHT22;1338;48.176;11.792;2024-03-06T00:55:53;5.20;30.80
2657;DHT22;1338;48.176;11.792;2024-03-06T00:58:22;5.50;1.00
2657;DHT22;1338;48.176;11.792;2024-03-06T01:00:49;5.40;1.00
2657;DHT22;1338;48.176;11.792;2024-03-06T01:03:18;5.00;1.00
2657;DHT22;1338;48.176;11.792;2024-03-06T01:05:47;4.80;99.90
2657;DHT22;1338;48.176;11.792;2024-03-06T01:08:14;4.80;99.90
2657;DHT22;1338;48.176;11.792;2024-03-06T01:10:46;4.80;1.00
2657;DHT22;1338;48.176;11.792;2024-03-06T01:13:15;5.00;1.00
2657;DHT22;1338;48.176;11.792;2024-03-06T01:15:44;5.00;99.90
2657;DHT22;1338;48.176;11.792;2024-03-06T01:18:13;5.20;99.90
2657;DHT22;1338;48.176;11.792;2024-03-06T01:20:41;4.80;99.90
2657;DHT22;1338;48.176;11.792;2024-03-06T01:23:10;4.60;99.90
2657;DHT22;1338;48.176;11.792;2024-03-06T01:25:39;4.60;1.00
2657;DHT22;1338;48.176;11.792;2024-03-06T01:28:09;4.50;1.00
2657;DHT22;1338;48.176;11.792;2024-03-06T01:30:37;4.60;1.00
2657;DHT22;1338;48.176;11.792;2024-03-06T01:33:06;4.60;1.00
2657;DHT22;1338;48.176;11.792;2024-03-06T01:35:35;4.60;1.00
2657;DHT22;1338;48.176;11.792;2024-03-06T01:38:03;4.70;1.00
2657;DHT22;1338;48.176;11.792;2024-03-06T01:40:32;4.90;1.00
2657;DHT22;1338;48.176;11.792;2024-03-06T01:43:00;5.30;99.90
2657;DHT22;1338;48.176;11.792;2024-03-06T01:45:30;5.70;1.00
2657;DHT22;1338;48.176;11.792;2024-03-06T01:48:00;5.50;1.00
2657;DHT22;1338;48.176;11.792;2024-03-06T01:50:28;5.90;1.00
2657;DHT22;1338;48.176;11.792;2024-03-06T01:52:57;5.90;1.00
2657;DHT22;1338;48.176;11.792;2024-03-06T01:55:25;5.90;99.90
2657;DHT22;1338;48.176;11.792;2024-03-06T01:57:54;6.00;99.90
2657;DHT22;1338;48.176;11.792;2024-03-06T02:00:23;6.00;99.90
2657;DHT22;1338;48.176;11.792;2024-03-06T02:02:54;5.80;99.90
2657;DHT22;1338;48.176;11.792;2024-03-06T02:05:22;5.80;99.90
2657;DHT22;1338;48.176;11.792;2024-03-06T02:07:53;5.60;99.90
2657;DHT22;1338;48.176;11.792;2024-03-06T02:10:22;5.80;99.90
2657;DHT22;1338;48.176;11.792;2024-03-06T02:12:51;6.00;99.90
2657;DHT22;1338;48.176;11.792;2024-03-06T02:15:20;5.90;99.90
2657;DHT22;1338;48.176;11.792;2024-03-06T02:17:48;5.80;99.90
2657;DHT22;1338;48.176;11.792;2024-03-06T02:20:23;5.60;99.90
2657;DHT22;1338;48.176;11.792;2024-03-06T02:22:51;5.80;99.90
2657;DHT22;1338;48.176;11.792;2024-03-06T02:25:20;5.90;99.90
2657;DHT22;1338;48.176;11.792;2024-03-06T02:27:48;5.60;99.90
2657;DHT22;1338;48.176;11.792;2024-03-06T02:30:19;5.60;99.90
2657;DHT22;1338;48.176;11.792;2024-03-06T02:32:48;5.80;99.90
2657;DHT22;1338;48.176;11.792;2024-03-06T02:35:17;5.80;99.90
2657;DHT22;1338;48.176;11.792;2024-03-06T02:37:47;5.70;99.90
2657;DHT22;1338;48.176;11.792;2024-03-06T02:40:16;5.40;99.90
2657;DHT22;1338;48.176;11.792;2024-03-06T02:42:45;5.50;99.90
2657;DHT22;1338;48.176;11.792;2024-03-06T02:45:13;5.60;99.90
2657;DHT22;1338;48.176;11.792;2024-03-06T02:47:42;5.70;99.90
2657;DHT22;1338;48.176;11.792;2024-03-06T02:50:10;5.40;99.90
2657;DHT22;1338;48.176;11.792;2024-03-06T02:52:39;5.60;99.90
2657;DHT22;1338;48.176;11.792;2024-03-06T02:55:11;5.50;99.90
2657;DHT22;1338;48.176;11.792;2024-03-06T02:57:39;5.60;99.90
2657;DHT22;1338;48.176;11.792;2024-03-06T03:00:09;5.50;99.90
2657;DHT22;1338;48.176;11.792;2024-03-06T03:02:40;5.50;99.90
2657;DHT22;1338;48.176;11.792;2024-03-06T03:05:09;5.30;99.90
2657;DHT22;1338;48.176;11.792;2024-03-06T03:07:38;5.20;99.90
2657;DHT22;1338;48.176;11.792;2024-03-06T03:10:09;5.10;1.00
2657;DHT22;1338;48.176;11.792;2024-03-06T03:12:38;5.30;1.00
2657;DHT22;1338;48.176;11.792;2024-03-06T03:15:07;5.10;1.00
2657;DHT22;1338;48.176;11.792;2024-03-06T03:17:36;5.30;1.00
2657;DHT22;1338;48.176;11.792;2024-03-06T03:20:05;5.20;1.00
2657;DHT22;1338;48.176;11.792;2024-03-06T03:22:37;5.20;1.00
2657;DHT22;1338;48.176;11.792;2024-03-06T03:25:09;5.10;1.00
2657;DHT22;1338;48.176;11.792;2024-03-06T03:27:39;5.00;1.00
2657;DHT22;1338;48.176;11.792;2024-03-06T03:30:08;4.90;1.00
2657;DHT22;1338;48.176;11.792;2024-03-06T03:32:38;4.40;1.00
2657;DHT22;1338;48.176;11.792;2024-03-06T03:35:07;4.00;1.00
2657;DHT22;1338;48.176;11.792;2024-03-06T03:37:36;4.00;1.00
2657;DHT22;1338;48.176;11.792;2024-03-06T03:40:06;3.90;18.40
2657;DHT22;1338;48.176;11.792;2024-03-06T03:42:40;3.80;99.90
2657;DHT22;1338;48.176;11.792;2024-03-06T03:45:09;3.70;99.90
2657;DHT22;1338;48.176;11.792;2024-03-06T03:47:37;3.60;99.90
2657;DHT22;1338;48.176;11.792;2024-03-06T03:50:06;3.40;99.90
2657;DHT22;1338;48.176;11.792;2024-03-06T03:52:37;3.30;99.90
2657;DHT22;1338;48.176;11.792;2024-03-06T03:55:09;3.30;99.90
2657;DHT22;1338;48.176;11.792;2024-03-06T03:57:39;3.30;99.90
2657;DHT22;1338;48.176;11.792;2024-03-06T04:00:09;3.30;99.90
2657;DHT22;1338;48.176;11.792;2024-03-06T04:02:39;3.40;99.90
2657;DHT22;1338;48.176;11.792;2024-03-06T04:05:08;3.50;99.90
2657;DHT22;1338;48.176;11.792;2024-03-06T04:07:37;3.40;99.90
2657;DHT22;1338;48.176;11.792;2024-03-06T04:10:06;3.40;99.90
2657;DHT22;1338;48.176;11.792;2024-03-06T04:12:39;3.50;99.90
2657;DHT22;1338;48.176;11.792;2024-03-06T04:15:09;3.30;99.90
2657;DHT22;1338;48.176;11.792;2024-03-06T04:17:37;3.30;99.90
2657;DHT22;1338;48.176;11.792;2024-03-06T04:20:09;3.30;99.90
2657;DHT22;1338;48.176;11.792;2024-03-06T04:22:39;3.10;99.90
2657;DHT22;1338;48.176;11.792;2024-03-06T04:25:08;2.90;1.00
2657;DHT22;1338;48.176;11.792;2024-03-06T04:27:37;3.00;1.00
2657;DHT22;1338;48.176;11.792;2024-03-06T04:30:10;3.00;8.10
2657;DHT22;1338;48.176;11.792;2024-03-06T04:32:39;3.00;99.90
2657;DHT22;1338;48.176;11.792;2024-03-06T04:35:08;3.00;24.20
2657;DHT22;1338;48.176;11.792;2024-03-06T04:37:37;2.90;1.00
2657;DHT22;1338;48.176;11.792;2024-03-06T04:40:07;2.80;1.00
2657;DHT22;1338;48.176;11.792;2024-03-06T04:42:37;2.70;1.00
2657;DHT22;1338;48.176;11.792;2024-03-06T04:45:11;2.70;1.00
2657;DHT22;1338;48.176;11.792;2024-03-06T04:47:40;2.80;1.00
2657;DHT22;1338;48.176;11.792;2024-03-06T04:50:09;2.80;1.00
2657;DHT22;1338;48.176;11.792;2024-03-06T04:52:38;2.70;1.00
2657;DHT22;1338;48.176;11.792;2024-03-06T04:55:07;2.70;1.00
2657;DHT22;1338;48.176;11.792;2024-03-06T04:57:37;2.70;1.00
2657;DHT22;1338;48.176;11.792;2024-03-06T05:00:11;2.60;1.00
2657;DHT22;1338;48.176;11.792;2024-03-06T05:02:40;2.60;1.00
2657;DHT22;1338;48.176;11.792;2024-03-06T05:05:26;2.60;1.00
2657;DHT22;1338;48.176;11.792;2024-03-06T05:08:12;2.50;1.00
2657;DHT22;1338;48.176;11.792;2024-03-06T05:11:00;2.50;1.00
2657;DHT22;1338;48.176;11.792;2024-03-06T05:13:47;2.40;1.00
2657;DHT22;1338;48.176;11.792;2024-03-06T05:16:35;2.40;1.00
2657;DHT22;1338;48.176;11.792;2024-03-06T05:19:20;2.50;48.00
2657;DHT22;1338;48.176;11.792;2024-03-06T05:22:06;2.60;99.90
2657;DHT22;1338;48.176;11.792;2024-03-06T05:24:52;2.60;1.00
2657;DHT22;1338;48.176;11.792;2024-03-06T05:27:39;2.50;1.00
2657;DHT22;1338;48.176;11.792;2024-03-06T05:30:24;2.40;1.00
2657;DHT22;1338;48.176;11.792;2024-03-06T05:33:12;2.50;99.90
2657;DHT22;1338;48.176;11.792;2024-03-06T05:35:58;2.50;99.90
2657;DHT22;1338;48.176;11.792;2024-03-06T05:38:44;2.50;99.90
2657;DHT22;1338;48.176;11.792;2024-03-06T05:41:29;2.40;99.90
2657;DHT22;1338;48.176;11.792;2024-03-06T05:44:15;2.40;75.30
2657;DHT22;1338;48.176;11.792;2024-03-06T05:47:02;2.40;1.00
2657;DHT22;1338;48.176;11.792;2024-03-06T05:49:51;2.40;1.00
2657;DHT22;1338;48.176;11.792;2024-03-06T05:52:37;2.40;1.00
2657;DHT22;1338;48.176;11.792;2024-03-06T05:55:22;2.30;1.00
2657;DHT22;1338;48.176;11.792;2024-03-06T05:58:08;2.30;1.00
2657;DHT22;1338;48.176;11.792;2024-03-06T06:00:42;3.20;99.90
2657;DHT22;1338;48.176;11.792;2024-03-06T06:03:10;3.00;99.90
2657;DHT22;1338;48.176;11.792;2024-03-06T06:05:43;2.50;1.00
2657;DHT22;1338;48.176;11.792;2024-03-06T06:08:12;2.30;1.00
2657;DHT22;1338;48.176;11.792;2024-03-06T06:10:40;2.40;1.00
2657;DHT22;1338;48.176;11.792;2024-03-06T06:13:09;2.30;1.00
2657;DHT22;1338;48.176;11.792;2024-03-06T06:15:37;2.40;1.00
2657;DHT22;1338;48.176;11.792;2024-03-06T06:18:06;2.40;1.00
2657;DHT22;1338;48.176;11.792;2024-03-06T06:20:34;2.50;1.00
2657;DHT22;1338;48.176;11.792;2024-03-06T06:23:05;2.30;1.00
2657;DHT22;1338;48.176;11.792;2024-03-06T06:25:34;2.40;1.00
2657;DHT22;1338;48.176;11.792;2024-03-06T06:28:02;2.40;1.00
2657;DHT22;1338;48.176;11.792;2024-03-06T06:30:31;2.40;1.00
2657;DHT22;1338;48.176;11.792;2024-03-06T06:33:00;2.40;1.00
2657;DHT22;1338;48.176;11.792;2024-03-06T06:35:29;2.30;1.00
2657;DHT22;1338;48.176;11.792;2024-03-06T06:37:57;2.20;1.00
2657;DHT22;1338;48.176;11.792;2024-03-06T06:40:28;2.20;1.00
2657;DHT22;1338;48.176;11.792;2024-03-06T06:42:56;3.10;99.90
2657;DHT22;1338;48.176;11.792;2024-03-06T06:45:25;3.40;99.90
2657;DHT22;1338;48.176;11.792;2024-03-06T06:47:54;2.80;1.00
2657;DHT22;1338;48.176;11.792;2024-03-06T06:50:23;2.40;1.00
2657;DHT22;1338;48.176;11.792;2024-03-06T06:52:53;2.40;1.00
2657;DHT22;1338;48.176;11.792;2024-03-06T06:55:22;2.40;1.00
2657;DHT22;1338;48.176;11.792;2024-03-06T06:57:53;2.40;13.30
2657;DHT22;1338;48.176;11.792;2024-03-06T07:00:22;2.30;2.30
2657;DHT22;1338;48.176;11.792;2024-03-06T07:02:52;2.30;36.80
2657;DHT22;1338;48.176;11.792;2024-03-06T07:05:20;2.30;99.90
2657;DHT22;1338;48.176;11.792;2024-03-06T07:07:49;2.20;99.90
2657;DHT22;1338;48.176;11.792;2024-03-06T07:10:21;2.30;24.80
2657;DHT22;1338;48.176;11.792;2024-03-06T07:12:50;2.20;1.00
2657;DHT22;1338;48.176;11.792;2024-03-06T07:15:21;2.10;1.00
2657;DHT22;1338;48.176;11.792;2024-03-06T07:17:49;2.10;57.90
2657;DHT22;1338;48.176;11.792;2024-03-06T07:20:17;2.10;99.90
2657;DHT22;1338;48.176;11.792;2024-03-06T07:22:46;2.10;99.90
2657;DHT22;1338;48.176;11.792;2024-03-06T07:25:15;2.20;99.90
2657;DHT22;1338;48.176;11.792;2024-03-06T07:27:43;2.20;99.90
2657;DHT22;1338;48.176;11.792;2024-03-06T07:30:13;2.20;99.90
2657;DHT22;1338;48.176;11.792;2024-03-06T07:32:43;2.20;99.90
2657;DHT22;1338;48.176;11.792;2024-03-06T07:35:12;2.20;99.90
2657;DHT22;1338;48.176;11.792;2024-03-06T07:37:40;2.20;99.90
2657;DHT22;1338;48.176;11.792;2024-03-06T07:40:12;2.20;99.90
2657;DHT22;1338;48.176;11.792;2024-03-06T07:42:40;2.20;99.90
2657;DHT22;1338;48.176;11.792;2024-03-06T07:45:09;2.20;99.90
2657;DHT22;1338;48.176;11.792;2024-03-06T07:47:38;2.20;99.90
2657;DHT22;1338;48.176;11.792;2024-03-06T07:50:11;2.20;99.90
2657;DHT22;1338;48.176;11.792;2024-03-06T07:52:46;2.20;99.90
2657;DHT22;1338;48.176;11.792;2024-03-06T07:55:17;2.40;99.90
2657;DHT22;1338;48.176;11.792;2024-03-06T07:57:48;2.30;99.90
2657;DHT22;1338;48.176;11.792;2024-03-06T08:00:18;2.40;99.90
2657;DHT22;1338;48.176;11.792;2024-03-06T08:02:47;2.40;99.90
2657;DHT22;1338;48.176;11.792;2024-03-06T08:05:19;2.40;99.90
2657;DHT22;1338;48.176;11.792;2024-03-06T08:07:48;2.40;99.90
2657;DHT22;1338;48.176;11.792;2024-03-06T08:10:17;2.30;99.90
2657;DHT22;1338;48.176;11.792;2024-03-06T08:12:46;2.50;99.90
2657;DHT22;1338;48.176;11.792;2024-03-06T08:15:15;2.50;99.90
2657;DHT22;1338;48.176;11.792;2024-03-06T08:17:44;2.60;47.90
2657;DHT22;1338;48.176;11.792;2024-03-06T08:20:14;2.60;1.00
2657;DHT22;1338;48.176;11.792;2024-03-06T08:22:44;2.60;1.00
2657;DHT22;1338;48.176;11.792;2024-03-06T08:25:13;2.50;1.00
2657;DHT22;1338;48.176;11.792;2024-03-06T08:27:42;2.60;1.00
2657;DHT22;1338;48.176;11.792;2024-03-06T08:30:11;2.60;32.10
2657;DHT22;1338;48.176;11.792;2024-03-06T08:32:40;2.70;4.10
2657;DHT22;1338;48.176;11.792;2024-03-06T08:35:13;2.70;1.00
2657;DHT22;1338;48.176;11.792;2024-03-06T08:37:47;2.60;1.00
2657;DHT22;1338;48.176;11.792;2024-03-06T08:40:16;2.70;1.00
2657;DHT22;1338;48.176;11.792;2024-03-06T08:42:46;2.70;1.00
2657;DHT22;1338;48.176;11.792;2024-03-06T08:45:16;2.80;1.00
2657;DHT22;1338;48.176;11.792;2024-03-06T08:47:46;2.80;1.00
2657;DHT22;1338;48.176;11.792;2024-03-06T08:50:16;2.80;1.00
2657;DHT22;1338;48.176;11.792;2024-03-06T08:52:46;2.80;1.00
2657;DHT22;1338;48.176;11.792;2024-03-06T08:55:15;2.90;1.00
2657;DHT22;1338;48.176;11.792;2024-03-06T08:57:43;2.80;1.00
2657;DHT22;1338;48.176;11.792;2024-03-06T09:00:13;2.90;1.00
2657;DHT22;1338;48.176;11.792;2024-03-06T09:02:42;2.90;1.00
2657;DHT22;1338;48.176;11.792;2024-03-06T09:05:11;3.00;1.00
2657;DHT22;1338;48.176;11.792;2024-03-06T09:07:41;3.00;1.00
2657;DHT22;1338;48.176;11.792;2024-03-06T09:10:11;3.00;1.00
2657;DHT22;1338;48.176;11.792;2024-03-06T09:12:40;3.00;1.00
2657;DHT22;1338;48.176;11.792;2024-03-06T09:15:09;3.10;1.00
2657;DHT22;1338;48.176;11.792;2024-03-06T09:17:39;3.00;1.00
2657;DHT22;1338;48.176;11.792;2024-03-06T09:20:09;3.10;1.00
2657;DHT22;1338;48.176;11.792;2024-03-06T09:22:41;3.20;1.00
2657;DHT22;1338;48.176;11.792;2024-03-06T09:25:11;3.10;1.00
2657;DHT22;1338;48.176;11.792;2024-03-06T09:27:43;3.10;1.00
2657;DHT22;1338;48.176;11.792;2024-03-06T09:30:13;3.30;1.00
2657;DHT22;1338;48.176;11.792;2024-03-06T09:32:43;3.20;1.00
2657;DHT22;1338;48.176;11.792;2024-03-06T09:35:12;3.20;1.00
2657;DHT22;1338;48.176;11.792;2024-03-06T09:37:45;3.20;1.00
2657;DHT22;1338;48.176;11.792;2024-03-06T09:40:23;3.30;1.00
2657;DHT22;1338;48.176;11.792;2024-03-06T09:42:52;3.40;1.00
2657;DHT22;1338;48.176;11.792;2024-03-06T09:45:21;3.40;1.00
2657;DHT22;1338;48.176;11.792;2024-03-06T09:47:51;3.30;1.00
2657;DHT22;1338;48.176;11.792;2024-03-06T09:50:23;3.50;1.00
2657;DHT22;1338;48.176;11.792;2024-03-06T09:52:55;3.40;1.00
2657;DHT22;1338;48.176;11.792;2024-03-06T09:55:30;3.60;1.00
2657;DHT22;1338;48.176;11.792;2024-03-06T09:57:58;3.80;1.00
2657;DHT22;1338;48.176;11.792;2024-03-06T10:00:29;3.90;1.00
2657;DHT22;1338;48.176;11.792;2024-03-06T10:03:02;3.90;1.00
2657;DHT22;1338;48.176;11.792;2024-03-06T10:05:32;4.00;99.90
2657;DHT22;1338;48.176;11.792;2024-03-06T10:08:02;4.00;99.90
2657;DHT22;1338;48.176;11.792;2024-03-06T10:10:33;4.20;99.90
2657;DHT22;1338;48.176;11.792;2024-03-06T10:13:01;4.10;99.90
2657;DHT22;1338;48.176;11.792;2024-03-06T10:15:30;3.80;99.90
2657;DHT22;1338;48.176;11.792;2024-03-06T10:18:11;3.80;1.00
2657;DHT22;1338;48.176;11.792;2024-03-06T10:20:41;4.00;1.00
2657;DHT22;1338;48.176;11.792;2024-03-06T10:23:12;3.80;1.00
2657;DHT22;1338;48.176;11.792;2024-03-06T10:25:44;3.90;1.00
2657;DHT22;1338;48.176;11.792;2024-03-06T10:28:13;3.80;1.00
2657;DHT22;1338;48.176;11.792;2024-03-06T10:30:42;3.90;1.00
2657;DHT22;1338;48.176;11.792;2024-03-06T10:33:13;4.00;1.00
2657;DHT22;1338;48.176;11.792;2024-03-06T10:35:43;4.20;1.00
2657;DHT22;1338;48.176;11.792;2024-03-06T10:38:13;4.30;1.00
2657;DHT22;1338;48.176;11.792;2024-03-06T10:40:46;4.30;99.90
2657;DHT22;1338;48.176;11.792;2024-03-06T10:43:14;4.30;99.90
2657;DHT22;1338;48.176;11.792;2024-03-06T10:45:47;4.60;99.90
2657;DHT22;1338;48.176;11.792;2024-03-06T10:48:18;4.50;99.90
2657;DHT22;1338;48.176;11.792;2024-03-06T10:50:49;4.30;99.90
2657;DHT22;1338;48.176;11.792;2024-03-06T10:53:18;4.20;1.00
2657;DHT22;1338;48.176;11.792;2024-03-06T10:55:51;4.10;1.00
2657;DHT22;1338;48.176;11.792;2024-03-06T10:58:23;4.10;1.00
2657;DHT22;1338;48.176;11.792;2024-03-06T11:00:53;4.10;1.00
2657;DHT22;1338;48.176;11.792;2024-03-06T11:03:25;4.20;1.00
2657;DHT22;1338;48.176;11.792;2024-03-06T11:05:57;4.20;1.00
2657;DHT22;1338;48.176;11.792;2024-03-06T11:08:30;4.30;1.00
2657;DHT22;1338;48.176;11.792;2024-03-06T11:11:20;4.50;99.90
2657;DHT22;1338;48.176;11.792;2024-03-06T11:13:54;4.60;99.90
2657;DHT22;1338;48.176;11.792;2024-03-06T11:16:27;4.60;99.90
2657;DHT22;1338;48.176;11.792;2024-03-06T11:19:05;4.60;99.90
2657;DHT22;1338;48.176;11.792;2024-03-06T11:21:45;4.50;99.90
2657;DHT22;1338;48.176;11.792;2024-03-06T11:24:16;4.70;1.00
2657;DHT22;1338;48.176;11.792;2024-03-06T11:26:54;4.60;99.90
2657;DHT22;1338;48.176;11.792;2024-03-06T11:29:24;4.80;99.90
2657;DHT22;1338;48.176;11.792;2024-03-06T11:32:03;4.70;99.90
2657;DHT22;1338;48.176;11.792;2024-03-06T11:34:36;4.70;99.90
2657;DHT22;1338;48.176;11.792;2024-03-06T11:37:06;4.80;99.90
2657;DHT22;1338;48.176;11.792;2024-03-06T11:39:38;4.80;99.90
2657;DHT22;1338;48.176;11.792;2024-03-06T11:42:13;5.00;99.90
2657;DHT22;1338;48.176;11.792;2024-03-06T11:44:54;5.20;99.90
2657;DHT22;1338;48.176;11.792;2024-03-06T11:47:24;5.40;99.90
2657;DHT22;1338;48.176;11.792;2024-03-06T11:49:55;5.40;99.90
2657;DHT22;1338;48.176;11.792;2024-03-06T11:52:23;5.40;99.90
2657;DHT22;1338;48.176;11.792;2024-03-06T11:54:52;5.60;99.90
2657;DHT22;1338;48.176;11.792;2024-03-06T11:57:23;5.60;99.90
2657;DHT22;1338;48.176;11.792;2024-03-06T11:59:52;5.80;1.00
2657;DHT22;1338;48.176;11.792;2024-03-06T12:02:22;6.00;1.00
2657;DHT22;1338;48.176;11.792;2024-03-06T12:04:51;6.00;1.00
2657;DHT22;1338;48.176;11.792;2024-03-06T12:07:21;6.00;1.00
2657;DHT22;1338;48.176;11.792;2024-03-06T12:09:52;6.20;1.00
2657;DHT22;1338;48.176;11.792;2024-03-06T12:12:23;6.20;1.00
2657;DHT22;1338;48.176;11.792;2024-03-06T12:14:58;6.20;1.00
2657;DHT22;1338;48.176;11.792;2024-03-06T12:17:28;6.20;1.00
2657;DHT22;1338;48.176;11.792;2024-03-06T12:19:56;6.30;1.00
2657;DHT22;1338;48.176;11.792;2024-03-06T12:22:26;6.10;1.00
2657;DHT22;1338;48.176;11.792;2024-03-06T12:24:59;6.30;1.00
2657;DHT22;1338;48.176;11.792;2024-03-06T12:27:30;6.10;1.00
2657;DHT22;1338;48.176;11.792;2024-03-06T12:30:01;6.10;1.00
2657;DHT22;1338;48.176;11.792;2024-03-06T12:32:32;6.00;1.00
2657;DHT22;1338;48.176;11.792;2024-03-06T12:35:01;6.30;1.00
2657;DHT22;1338;48.176;11.792;2024-03-06T12:37:30;6.40;99.90
2657;DHT22;1338;48.176;11.792;2024-03-06T12:40:00;6.30;99.90
2657;DHT22;1338;48.176;11.792;2024-03-06T12:42:33;6.20;99.90
2657;DHT22;1338;48.176;11.792;2024-03-06T12:45:01;6.20;99.90
2657;DHT22;1338;48.176;11.792;2024-03-06T12:47:30;6.20;1.00
2657;DHT22;1338;48.176;11.792;2024-03-06T12:50:00;6.10;99.90
2657;DHT22;1338;48.176;11.792;2024-03-06T12:52:29;6.00;1.00
2657;DHT22;1338;48.176;11.792;2024-03-06T12:54:59;6.00;1.00
2657;DHT22;1338;48.176;11.792;2024-03-06T12:57:28;5.90;1.00
2657;DHT22;1338;48.176;11.792;2024-03-06T12:59:58;5.80;1.00
2657;DHT22;1338;48.176;11.792;2024-03-06T13:02:27;5.60;1.00
2657;DHT22;1338;48.176;11.792;2024-03-06T13:04:56;5.80;1.00
2657;DHT22;1338;48.176;11.792;2024-03-06T13:07:24;6.10;1.00
2657;DHT22;1338;48.176;11.792;2024-03-06T13:09:54;6.10;1.00
2657;DHT22;1338;48.176;11.792;2024-03-06T13:12:23;6.20;1.00
2657;DHT22;1338;48.176;11.792;2024-03-06T13:14:52;6.00;1.00
2657;DHT22;1338;48.176;11.792;2024-03-06T13:17:22;6.10;1.00
2657;DHT22;1338;48.176;11.792;2024-03-06T13:19:51;6.10;1.00
2657;DHT22;1338;48.176;11.792;2024-03-06T13:22:19;5.70;1.00
2657;DHT22;1338;48.176;11.792;2024-03-06T13:24:49;5.70;1.00
2657;DHT22;1338;48.176;11.792;2024-03-06T13:27:21;5.60;1.00
2657;DHT22;1338;48.176;11.792;2024-03-06T13:29:51;5.80;1.00
2657;DHT22;1338;48.176;11.792;2024-03-06T13:32:19;5.70;1.00
2657;DHT22;1338;48.176;11.792;2024-03-06T13:34:50;6.00;1.00
2657;DHT22;1338;48.176;11.792;2024-03-06T13:37:19;5.80;1.00
2657;DHT22;1338;48.176;11.792;2024-03-06T13:39:49;5.90;1.00
2657;DHT22;1338;48.176;11.792;2024-03-06T13:42:19;5.70;1.00
2657;DHT22;1338;48.176;11.792;2024-03-06T13:44:48;5.40;1.00
2657;DHT22;1338;48.176;11.792;2024-03-06T13:47:16;5.60;54.30
2657;DHT22;1338;48.176;11.792;2024-03-06T13:49:45;5.60;1.00
2657;DHT22;1338;48.176;11.792;2024-03-06T13:52:15;5.50;1.00
2657;DHT22;1338;48.176;11.792;2024-03-06T13:54:47;5.50;1.00
2657;DHT22;1338;48.176;11.792;2024-03-06T13:57:16;5.40;1.00
2657;DHT22;1338;48.176;11.792;2024-03-06T13:59:45;5.60;1.00
2657;DHT22;1338;48.176;11.792;2024-03-06T14:02:13;5.50;1.00
2657;DHT22;1338;48.176;11.792;2024-03-06T14:04:42;5.50;1.00
2657;DHT22;1338;48.176;11.792;2024-03-06T14:07:11;5.30;1.00
2657;DHT22;1338;48.176;11.792;2024-03-06T14:09:42;5.50;1.00
2657;DHT22;1338;48.176;11.792;2024-03-06T14:12:11;5.40;1.00
2657;DHT22;1338;48.176;11.792;2024-03-06T14:14:39;5.20;1.00
2657;DHT22;1338;48.176;11.792;2024-03-06T14:17:08;5.40;1.00
2657;DHT22;1338;48.176;11.792;2024-03-06T14:19:37;5.70;1.00
2657;DHT22;1338;48.176;11.792;2024-03-06T14:22:07;5.90;1.00
2657;DHT22;1338;48.176;11.792;2024-03-06T14:24:37;5.60;1.00
2657;DHT22;1338;48.176;11.792;2024-03-06T14:27:07;5.50;1.00
2657;DHT22;1338;48.176;11.792;2024-03-06T14:29:36;5.30;1.00
2657;DHT22;1338;48.176;11.792;2024-03-06T14:32:06;5.60;1.00
2657;DHT22;1338;48.176;11.792;2024-03-06T14:34:36;5.20;1.00
2657;DHT22;1338;48.176;11.792;2024-03-06T14:37:05;5.00;1.00
2657;DHT22;1338;48.176;11.792;2024-03-06T14:39:33;4.90;1.00
2657;DHT22;1338;48.176;11.792;2024-03-06T14:42:02;5.20;42.30
2657;DHT22;1338;48.176;11.792;2024-03-06T14:44:33;5.20;5.50
2657;DHT22;1338;48.176;11.792;2024-03-06T14:47:01;5.20;1.00
2657;DHT22;1338;48.176;11.792;2024-03-06T14:49:30;5.20;1.00
2657;DHT22;1338;48.176;11.792;2024-03-06T14:51:58;5.10;1.00
2657;DHT22;1338;48.176;11.792;2024-03-06T14:54:27;5.00;1.00
2657;DHT22;1338;48.176;11.792;2024-03-06T14:56:55;5.10;1.00
2657;DHT22;1338;48.176;11.792;2024-03-06T14:59:24;4.90;1.00
2657;DHT22;1338;48.176;11.792;2024-03-06T15:01:54;5.00;1.00
2657;DHT22;1338;48.176;11.792;2024-03-06T15:04:23;5.00;1.00
2657;DHT22;1338;48.176;11.792;2024-03-06T15:06:51;5.00;1.00
2657;DHT22;1338;48.176;11.792;2024-03-06T15:09:23;5.10;1.00
2657;DHT22;1338;48.176;11.792;2024-03-06T15:11:53;4.90;1.00
2657;DHT22;1338;48.176;11.792;2024-03-06T15:14:23;4.90;1.00
2657;DHT22;1338;48.176;11.792;2024-03-06T15:16:54;4.80;1.00
2657;DHT22;1338;48.176;11.792;2024-03-06T15:19:23;4.70;1.00
2657;DHT22;1338;48.176;11.792;2024-03-06T15:21:51;4.70;1.00
2657;DHT22;1338;48.176;11.792;2024-03-06T15:24:20;4.60;1.00
2657;DHT22;1338;48.176;11.792;2024-03-06T15:26:49;4.60;1.00
2657;DHT22;1338;48.176;11.792;2024-03-06T15:29:19;4.60;1.00
2657;DHT22;1338;48.176;11.792;2024-03-06T15:31:47;4.60;1.00
2657;DHT22;1338;48.176;11.792;2024-03-06T15:34:18;4.60;1.00
2657;DHT22;1338;48.176;11.792;2024-03-06T15:36:46;4.60;1.00
2657;DHT22;1338;48.176;11.792;2024-03-06T15:39:14;4.60;1.00
2657;DHT22;1338;48.176;11.792;2024-03-06T15:41:43;4.60;1.00
2657;DHT22;1338;48.176;11.792;2024-03-06T15:44:12;4.50;1.00
2657;DHT22;1338;48.176;11.792;2024-03-06T15:46:40;4.40;33.20
2657;DHT22;1338;48.176;11.792;2024-03-06T15:49:23;4.40;99.90
2657;DHT22;1338;48.176;11.792;2024-03-06T15:51:52;4.30;99.90
2657;DHT22;1338;48.176;11.792;2024-03-06T15:54:21;4.30;99.90
2657;DHT22;1338;48.176;11.792;2024-03-06T15:56:49;4.30;99.90
2657;DHT22;1338;48.176;11.792;2024-03-06T15:59:18;4.10;99.90
2657;DHT22;1338;48.176;11.792;2024-03-06T16:01:47;4.10;99.90
2657;DHT22;1338;48.176;11.792;2024-03-06T16:04:15;4.10;99.90
2657;DHT22;1338;48.176;11.792;2024-03-06T16:06:45;4.10;99.90
2657;DHT22;1338;48.176;11.792;2024-03-06T16:09:15;4.10;99.90
2657;DHT22;1338;48.176;11.792;2024-03-06T16:11:43;4.00;99.90
2657;DHT22;1338;48.176;11.792;2024-03-06T16:14:12;4.00;25.60
2657;DHT22;1338;48.176;11.792;2024-03-06T16:16:40;4.00;1.00
2657;DHT22;1338;48.176;11.792;2024-03-06T16:19:11;4.00;1.00
2657;DHT22;1338;48.176;11.792;2024-03-06T16:21:39;4.00;1.00
2657;DHT22;1338;48.176;11.792;2024-03-06T16:24:09;4.00;1.00
2657;DHT22;1338;48.176;11.792;2024-03-06T16:26:38;4.00;1.00
2657;DHT22;1338;48.176;11.792;2024-03-06T16:29:08;4.00;1.00
2657;DHT22;1338;48.176;11.792;2024-03-06T16:31:38;4.10;1.00
2657;DHT22;1338;48.176;11.792;2024-03-06T16:34:07;4.10;1.00